sensor_id;sensor_type;location;lat;lon;timestamp;pressure;altitude;pressure_sealevel;temperature;humidity
10668;BME280;5382;42.136;24.796;2022-10-16T00:00:31;100604.56;;;12.17;100.00
10668;BME280;5382;42.136;24.796;2022-10-16T00:02:58;100603.28;;;12.10;100.00
10668;BME280;5382;42.136;24.796;2022-10-16T00:05:24;100602.19;;;11.99;100.00
10668;BME280;5382;42.136;24.796;2022-10-16T00:07:51;100609.75;;;12.06;100.00
10668;BME280;5382;42.136;24.796;2022-10-16T00:10:19;100611.00;;;12.00;100.00
10668;BME280;5382;42.136;24.796;2022-10-16T00:12:46;100604.09;;;11.97;100.00
10668;BME280;5382;42.136;24.796;2022-10-16T00:15:13;100601.31;;;11.86;100.00
10668;BME280;5382;42.136;24.796;2022-10-16T00:17:41;100615.97;;;11.92;100.00
10668;BME280;5382;42.136;24.796;2022-10-16T00:20:08;100610.28;;;11.84;100.00
10668;BME280;5382;42.136;24.796;2022-10-16T00:22:35;100622.31;;;11.89;100.00
10668;BME280;5382;42.136;24.796;2022-10-16T00:25:02;100609.81;;;11.77;100.00
10668;BME280;5382;42.136;24.796;2022-10-16T00:27:30;100624.03;;;11.90;100.00
10668;BME280;5382;42.136;24.796;2022-10-16T00:29:57;100617.69;;;11.93;100.00
10668;BME280;5382;42.136;24.796;2022-10-16T00:32:26;100617.00;;;11.89;100.00
10668;BME280;5382;42.136;24.796;2022-10-16T00:34:53;100613.97;;;11.95;100.00
10668;BME280;5382;42.136;24.796;2022-10-16T00:37:21;100624.59;;;11.95;100.00
10668;BME280;5382;42.136;24.796;2022-10-16T00:39:47;100604.13;;;11.83;100.00
10668;BME280;5382;42.136;24.796;2022-10-16T00:42:15;100602.91;;;11.62;100.00
10668;BME280;5382;42.136;24.796;2022-10-16T00:44:47;100632.41;;;11.70;100.00
10668;BME280;5382;42.136;24.796;2022-10-16T00:47:19;100620.34;;;11.51;100.00
10668;BME280;5382;42.136;24.796;2022-10-16T00:49:49;100625.09;;;11.73;100.00
10668;BME280;5382;42.136;24.796;2022-10-16T00:52:16;100636.25;;;11.78;100.00
10668;BME280;5382;42.136;24.796;2022-10-16T00:54:45;100597.03;;;11.56;100.00
10668;BME280;5382;42.136;24.796;2022-10-16T00:57:12;100581.16;;;11.42;100.00
10668;BME280;5382;42.136;24.796;2022-10-16T00:59:41;100640.28;;;11.57;100.00
10668;BME280;5382;42.136;24.796;2022-10-16T01:02:12;100640.22;;;11.44;100.00
10668;BME280;5382;42.136;24.796;2022-10-16T01:04:42;100633.66;;;11.08;100.00
10668;BME280;5382;42.136;24.796;2022-10-16T01:07:14;100665.31;;;11.10;100.00
10668;BME280;5382;42.136;24.796;2022-10-16T01:09:52;100550.06;;;10.33;100.00
10668;BME280;5382;42.136;24.796;2022-10-16T01:12:27;100657.75;;;10.89;100.00
10668;BME280;5382;42.136;24.796;2022-10-16T01:14:59;100654.72;;;10.67;100.00
10668;BME280;5382;42.136;24.796;2022-10-16T01:17:34;100667.09;;;10.81;100.00
10668;BME280;5382;42.136;24.796;2022-10-16T01:20:07;100663.91;;;10.90;100.00
10668;BME280;5382;42.136;24.796;2022-10-16T01:22:41;100654.25;;;10.89;100.00
10668;BME280;5382;42.136;24.796;2022-10-16T01:25:23;100665.03;;;10.86;100.00
10668;BME280;5382;42.136;24.796;2022-10-16T01:27:53;100662.38;;;10.86;100.00
10668;BME280;5382;42.136;24.796;2022-10-16T01:30:23;100668.06;;;10.94;100.00
10668;BME280;5382;42.136;24.796;2022-10-16T01:32:55;100679.97;;;11.01;100.00
10668;BME280;5382;42.136;24.796;2022-10-16T01:35:26;100682.63;;;11.01;100.00
10668;BME280;5382;42.136;24.796;2022-10-16T01:37:59;100675.16;;;10.94;100.00
10668;BME280;5382;42.136;24.796;2022-10-16T01:40:29;100669.56;;;10.84;100.00
10668;BME280;5382;42.136;24.796;2022-10-16T01:43:02;100676.84;;;10.80;100.00
10668;BME280;5382;42.136;24.796;2022-10-16T01:45:31;100659.16;;;10.66;100.00
10668;BME280;5382;42.136;24.796;2022-10-16T01:48:00;100693.88;;;10.90;100.00
10668;BME280;5382;42.136;24.796;2022-10-16T01:50:31;100694.91;;;10.88;100.00
10668;BME280;5382;42.136;24.796;2022-10-16T01:53:02;100665.41;;;10.80;100.00
10668;BME280;5382;42.136;24.796;2022-10-16T01:55:33;100656.97;;;10.59;100.00
10668;BME280;5382;42.136;24.796;2022-10-16T01:58:05;100696.59;;;10.89;100.00
10668;BME280;5382;42.136;24.796;2022-10-16T02:00:33;100697.88;;;10.98;100.00
10668;BME280;5382;42.136;24.796;2022-10-16T02:03:03;100698.63;;;11.00;100.00
10668;BME280;5382;42.136;24.796;2022-10-16T02:05:33;100700.63;;;11.10;100.00
10668;BME280;5382;42.136;24.796;2022-10-16T02:08:03;100700.03;;;11.20;100.00
10668;BME280;5382;42.136;24.796;2022-10-16T02:10:30;100649.63;;;10.93;100.00
10668;BME280;5382;42.136;24.796;2022-10-16T02:13:00;100695.03;;;11.29;100.00
10668;BME280;5382;42.136;24.796;2022-10-16T02:15:31;100691.53;;;11.29;100.00
10668;BME280;5382;42.136;24.796;2022-10-16T02:17:58;100700.91;;;11.34;100.00
10668;BME280;5382;42.136;24.796;2022-10-16T02:20:28;100677.53;;;11.27;100.00
10668;BME280;5382;42.136;24.796;2022-10-16T02:23:00;100681.97;;;11.26;100.00
10668;BME280;5382;42.136;24.796;2022-10-16T02:25:31;100700.13;;;11.32;100.00
10668;BME280;5382;42.136;24.796;2022-10-16T02:28:02;100693.44;;;11.41;100.00
10668;BME280;5382;42.136;24.796;2022-10-16T02:30:36;100676.56;;;11.28;100.00
10668;BME280;5382;42.136;24.796;2022-10-16T02:33:07;100695.31;;;11.39;100.00
10668;BME280;5382;42.136;24.796;2022-10-16T02:35:35;100700.81;;;11.36;100.00
10668;BME280;5382;42.136;24.796;2022-10-16T02:38:03;100693.59;;;11.38;100.00
10668;BME280;5382;42.136;24.796;2022-10-16T02:40:31;100707.59;;;11.40;100.00
10668;BME280;5382;42.136;24.796;2022-10-16T02:42:58;100718.28;;;11.53;100.00
10668;BME280;5382;42.136;24.796;2022-10-16T02:45:25;100716.00;;;11.61;100.00
10668;BME280;5382;42.136;24.796;2022-10-16T02:47:53;100721.22;;;11.63;100.00
10668;BME280;5382;42.136;24.796;2022-10-16T02:50:20;100680.38;;;11.24;100.00
10668;BME280;5382;42.136;24.796;2022-10-16T02:52:47;100714.22;;;11.47;100.00
10668;BME280;5382;42.136;24.796;2022-10-16T02:55:14;100722.25;;;11.60;100.00
10668;BME280;5382;42.136;24.796;2022-10-16T02:57:41;100720.84;;;11.54;100.00
10668;BME280;5382;42.136;24.796;2022-10-16T03:00:09;100739.28;;;11.70;100.00
10668;BME280;5382;42.136;24.796;2022-10-16T03:02:38;100691.81;;;11.39;100.00
10668;BME280;5382;42.136;24.796;2022-10-16T03:05:07;100723.38;;;11.70;100.00
10668;BME280;5382;42.136;24.796;2022-10-16T03:07:34;100717.03;;;11.73;100.00
10668;BME280;5382;42.136;24.796;2022-10-16T03:10:01;100739.84;;;11.75;100.00
10668;BME280;5382;42.136;24.796;2022-10-16T03:12:28;100712.16;;;11.52;100.00
10668;BME280;5382;42.136;24.796;2022-10-16T03:14:55;100705.06;;;11.39;100.00
10668;BME280;5382;42.136;24.796;2022-10-16T03:17:22;100738.13;;;11.74;100.00
10668;BME280;5382;42.136;24.796;2022-10-16T03:19:50;100680.47;;;11.37;100.00
10668;BME280;5382;42.136;24.796;2022-10-16T03:22:18;100713.03;;;11.39;100.00
10668;BME280;5382;42.136;24.796;2022-10-16T03:24:45;100742.41;;;11.48;100.00
10668;BME280;5382;42.136;24.796;2022-10-16T03:27:11;100732.69;;;11.49;100.00
10668;BME280;5382;42.136;24.796;2022-10-16T03:29:38;100754.38;;;11.41;100.00
10668;BME280;5382;42.136;24.796;2022-10-16T03:32:14;100748.59;;;11.49;100.00
10668;BME280;5382;42.136;24.796;2022-10-16T03:34:41;100727.66;;;11.30;100.00
10668;BME280;5382;42.136;24.796;2022-10-16T03:37:08;100750.84;;;11.55;100.00
10668;BME280;5382;42.136;24.796;2022-10-16T03:39:36;100752.75;;;11.53;100.00
10668;BME280;5382;42.136;24.796;2022-10-16T03:42:03;100747.16;;;11.29;100.00
10668;BME280;5382;42.136;24.796;2022-10-16T03:44:29;100761.34;;;11.28;100.00
10668;BME280;5382;42.136;24.796;2022-10-16T03:46:56;100762.38;;;11.25;100.00
10668;BME280;5382;42.136;24.796;2022-10-16T03:49:23;100765.03;;;11.25;100.00
10668;BME280;5382;42.136;24.796;2022-10-16T03:51:50;100757.47;;;11.19;100.00
10668;BME280;5382;42.136;24.796;2022-10-16T03:54:16;100761.53;;;11.25;100.00
10668;BME280;5382;42.136;24.796;2022-10-16T03:56:45;100771.47;;;11.21;100.00
10668;BME280;5382;42.136;24.796;2022-10-16T03:59:12;100779.31;;;11.08;100.00
10668;BME280;5382;42.136;24.796;2022-10-16T04:01:39;100773.53;;;11.02;100.00
10668;BME280;5382;42.136;24.796;2022-10-16T04:04:05;100764.25;;;10.95;100.00
10668;BME280;5382;42.136;24.796;2022-10-16T04:06:32;100773.63;;;11.00;100.00
10668;BME280;5382;42.136;24.796;2022-10-16T04:08:59;100726.75;;;10.42;100.00
10668;BME280;5382;42.136;24.796;2022-10-16T04:11:26;100784.84;;;10.59;100.00
10668;BME280;5382;42.136;24.796;2022-10-16T04:13:54;100717.81;;;10.29;100.00
10668;BME280;5382;42.136;24.796;2022-10-16T04:16:21;100772.38;;;10.61;100.00
10668;BME280;5382;42.136;24.796;2022-10-16T04:18:47;100774.06;;;10.62;100.00
10668;BME280;5382;42.136;24.796;2022-10-16T04:21:14;100769.50;;;10.50;100.00
10668;BME280;5382;42.136;24.796;2022-10-16T04:23:42;100717.28;;;10.22;100.00
10668;BME280;5382;42.136;24.796;2022-10-16T04:26:08;100769.31;;;10.53;100.00
10668;BME280;5382;42.136;24.796;2022-10-16T04:28:35;100774.59;;;10.53;100.00
10668;BME280;5382;42.136;24.796;2022-10-16T04:31:05;100781.78;;;10.51;100.00
10668;BME280;5382;42.136;24.796;2022-10-16T04:33:32;100778.63;;;10.44;100.00
10668;BME280;5382;42.136;24.796;2022-10-16T04:36:00;100780.09;;;10.34;100.00
10668;BME280;5382;42.136;24.796;2022-10-16T04:38:27;100784.47;;;10.35;100.00
10668;BME280;5382;42.136;24.796;2022-10-16T04:40:54;100779.06;;;10.37;100.00
10668;BME280;5382;42.136;24.796;2022-10-16T04:43:21;100775.50;;;10.38;100.00
10668;BME280;5382;42.136;24.796;2022-10-16T04:45:48;100785.06;;;10.40;100.00
10668;BME280;5382;42.136;24.796;2022-10-16T04:48:17;100777.63;;;10.31;100.00
10668;BME280;5382;42.136;24.796;2022-10-16T04:50:44;100779.84;;;10.39;100.00
10668;BME280;5382;42.136;24.796;2022-10-16T04:53:11;100790.25;;;10.42;100.00
10668;BME280;5382;42.136;24.796;2022-10-16T04:55:38;100782.56;;;10.37;100.00
10668;BME280;5382;42.136;24.796;2022-10-16T04:58:05;100778.38;;;10.17;100.00
10668;BME280;5382;42.136;24.796;2022-10-16T05:00:32;100793.72;;;10.26;100.00
10668;BME280;5382;42.136;24.796;2022-10-16T05:02:59;100802.47;;;10.29;100.00
10668;BME280;5382;42.136;24.796;2022-10-16T05:05:27;100798.72;;;10.33;100.00
10668;BME280;5382;42.136;24.796;2022-10-16T05:07:54;100805.63;;;10.35;100.00
10668;BME280;5382;42.136;24.796;2022-10-16T05:10:21;100805.78;;;10.32;100.00
10668;BME280;5382;42.136;24.796;2022-10-16T05:12:48;100809.31;;;10.33;100.00
10668;BME280;5382;42.136;24.796;2022-10-16T05:15:15;100814.75;;;10.30;100.00
10668;BME280;5382;42.136;24.796;2022-10-16T05:17:42;100810.72;;;10.22;100.00
10668;BME280;5382;42.136;24.796;2022-10-16T05:20:09;100812.00;;;10.15;100.00
10668;BME280;5382;42.136;24.796;2022-10-16T05:22:37;100819.34;;;10.26;100.00
10668;BME280;5382;42.136;24.796;2022-10-16T05:25:05;100817.44;;;9.96;100.00
10668;BME280;5382;42.136;24.796;2022-10-16T05:27:31;100817.13;;;9.69;100.00
10668;BME280;5382;42.136;24.796;2022-10-16T05:30:01;100830.13;;;9.74;100.00
10668;BME280;5382;42.136;24.796;2022-10-16T05:32:27;100831.41;;;9.82;100.00
10668;BME280;5382;42.136;24.796;2022-10-16T05:34:54;100832.28;;;9.99;100.00
10668;BME280;5382;42.136;24.796;2022-10-16T05:37:21;100824.94;;;10.04;100.00
10668;BME280;5382;42.136;24.796;2022-10-16T05:39:49;100818.91;;;10.02;100.00
10668;BME280;5382;42.136;24.796;2022-10-16T05:42:16;100844.72;;;10.46;100.00
10668;BME280;5382;42.136;24.796;2022-10-16T05:44:43;100843.25;;;10.56;100.00
10668;BME280;5382;42.136;24.796;2022-10-16T05:47:10;100833.84;;;10.51;100.00
10668;BME280;5382;42.136;24.796;2022-10-16T05:49:39;100852.19;;;10.69;100.00
10668;BME280;5382;42.136;24.796;2022-10-16T05:52:06;100848.25;;;10.77;100.00
10668;BME280;5382;42.136;24.796;2022-10-16T05:54:33;100822.56;;;10.63;100.00
10668;BME280;5382;42.136;24.796;2022-10-16T05:57:01;100856.44;;;10.88;100.00
10668;BME280;5382;42.136;24.796;2022-10-16T05:59:28;100864.44;;;10.86;100.00
10668;BME280;5382;42.136;24.796;2022-10-16T06:01:54;100862.50;;;10.90;100.00
10668;BME280;5382;42.136;24.796;2022-10-16T06:04:21;100869.31;;;10.94;100.00
10668;BME280;5382;42.136;24.796;2022-10-16T06:06:48;100863.56;;;11.02;100.00
10668;BME280;5382;42.136;24.796;2022-10-16T06:09:15;100870.28;;;11.07;100.00
10668;BME280;5382;42.136;24.796;2022-10-16T06:11:41;100845.53;;;11.08;100.00
10668;BME280;5382;42.136;24.796;2022-10-16T06:14:10;100835.97;;;11.06;100.00
10668;BME280;5382;42.136;24.796;2022-10-16T06:16:37;100869.41;;;11.23;100.00
10668;BME280;5382;42.136;24.796;2022-10-16T06:19:04;100868.69;;;11.35;100.00
10668;BME280;5382;42.136;24.796;2022-10-16T06:21:33;100870.28;;;11.38;100.00
10668;BME280;5382;42.136;24.796;2022-10-16T06:24:00;100859.50;;;11.26;100.00
10668;BME280;5382;42.136;24.796;2022-10-16T06:26:29;100884.16;;;11.57;100.00
10668;BME280;5382;42.136;24.796;2022-10-16T06:28:58;100879.91;;;11.54;100.00
10668;BME280;5382;42.136;24.796;2022-10-16T06:31:27;100890.22;;;11.59;100.00
10668;BME280;5382;42.136;24.796;2022-10-16T06:33:58;100873.16;;;11.49;100.00
10668;BME280;5382;42.136;24.796;2022-10-16T06:36:25;100899.88;;;11.60;100.00
10668;BME280;5382;42.136;24.796;2022-10-16T06:38:53;100904.53;;;11.56;100.00
10668;BME280;5382;42.136;24.796;2022-10-16T06:41:21;100886.69;;;11.44;100.00
10668;BME280;5382;42.136;24.796;2022-10-16T06:43:48;100906.22;;;11.57;100.00
10668;BME280;5382;42.136;24.796;2022-10-16T06:46:17;100901.69;;;11.60;100.00
10668;BME280;5382;42.136;24.796;2022-10-16T06:48:46;100910.75;;;11.55;100.00
10668;BME280;5382;42.136;24.796;2022-10-16T06:51:15;100898.31;;;11.42;100.00
10668;BME280;5382;42.136;24.796;2022-10-16T06:53:43;100911.31;;;11.61;100.00
10668;BME280;5382;42.136;24.796;2022-10-16T06:56:12;100915.91;;;11.73;100.00
10668;BME280;5382;42.136;24.796;2022-10-16T06:58:39;100912.91;;;11.93;100.00
10668;BME280;5382;42.136;24.796;2022-10-16T07:01:07;100912.06;;;12.07;100.00
10668;BME280;5382;42.136;24.796;2022-10-16T07:03:36;100911.94;;;12.37;100.00
10668;BME280;5382;42.136;24.796;2022-10-16T07:06:06;100920.19;;;12.47;100.00
10668;BME280;5382;42.136;24.796;2022-10-16T07:08:34;100912.88;;;12.51;100.00
10668;BME280;5382;42.136;24.796;2022-10-16T07:11:02;100911.53;;;12.58;100.00
10668;BME280;5382;42.136;24.796;2022-10-16T07:13:29;100915.25;;;12.55;100.00
10668;BME280;5382;42.136;24.796;2022-10-16T07:15:56;100921.69;;;12.51;100.00
10668;BME280;5382;42.136;24.796;2022-10-16T07:18:22;100930.50;;;12.52;100.00
10668;BME280;5382;42.136;24.796;2022-10-16T07:20:52;100925.09;;;12.53;100.00
10668;BME280;5382;42.136;24.796;2022-10-16T07:23:21;100927.00;;;12.51;100.00
10668;BME280;5382;42.136;24.796;2022-10-16T07:25:53;100926.50;;;12.59;100.00
10668;BME280;5382;42.136;24.796;2022-10-16T07:28:21;100926.31;;;12.62;100.00
10668;BME280;5382;42.136;24.796;2022-10-16T07:30:48;100924.75;;;12.72;100.00
10668;BME280;5382;42.136;24.796;2022-10-16T07:33:15;100918.66;;;12.84;100.00
10668;BME280;5382;42.136;24.796;2022-10-16T07:35:48;100915.41;;;12.94;100.00
10668;BME280;5382;42.136;24.796;2022-10-16T07:38:14;100916.09;;;13.10;100.00
10668;BME280;5382;42.136;24.796;2022-10-16T07:40:43;100929.19;;;13.13;100.00
10668;BME280;5382;42.136;24.796;2022-10-16T07:43:10;100927.00;;;13.20;100.00
10668;BME280;5382;42.136;24.796;2022-10-16T07:45:37;100922.03;;;13.28;100.00
10668;BME280;5382;42.136;24.796;2022-10-16T07:48:04;100926.41;;;13.42;100.00
10668;BME280;5382;42.136;24.796;2022-10-16T07:50:31;100909.94;;;13.49;100.00
10668;BME280;5382;42.136;24.796;2022-10-16T07:52:58;100910.63;;;13.53;100.00
10668;BME280;5382;42.136;24.796;2022-10-16T07:55:25;100918.91;;;13.61;100.00
10668;BME280;5382;42.136;24.796;2022-10-16T07:57:54;100920.81;;;13.59;100.00
10668;BME280;5382;42.136;24.796;2022-10-16T08:00:22;100897.84;;;13.58;100.00
10668;BME280;5382;42.136;24.796;2022-10-16T08:02:49;100928.28;;;13.92;100.00
10668;BME280;5382;42.136;24.796;2022-10-16T08:05:16;100931.56;;;14.09;100.00
10668;BME280;5382;42.136;24.796;2022-10-16T08:07:42;100926.44;;;14.31;100.00
10668;BME280;5382;42.136;24.796;2022-10-16T08:10:16;100922.16;;;14.54;100.00
10668;BME280;5382;42.136;24.796;2022-10-16T08:12:43;100927.34;;;14.69;100.00
10668;BME280;5382;42.136;24.796;2022-10-16T08:15:11;100922.75;;;14.71;100.00
10668;BME280;5382;42.136;24.796;2022-10-16T08:17:38;100920.78;;;14.61;100.00
10668;BME280;5382;42.136;24.796;2022-10-16T08:20:05;100920.84;;;14.73;100.00
10668;BME280;5382;42.136;24.796;2022-10-16T08:22:32;100892.84;;;14.67;100.00
10668;BME280;5382;42.136;24.796;2022-10-16T08:24:59;100905.13;;;14.81;100.00
10668;BME280;5382;42.136;24.796;2022-10-16T08:27:31;100912.75;;;14.98;100.00
10668;BME280;5382;42.136;24.796;2022-10-16T08:29:57;100911.03;;;15.21;100.00
10668;BME280;5382;42.136;24.796;2022-10-16T08:32:26;100903.94;;;15.44;100.00
10668;BME280;5382;42.136;24.796;2022-10-16T08:34:52;100918.03;;;15.58;100.00
10668;BME280;5382;42.136;24.796;2022-10-16T08:37:19;100922.41;;;15.59;100.00
10668;BME280;5382;42.136;24.796;2022-10-16T08:39:46;100922.50;;;15.81;100.00
10668;BME280;5382;42.136;24.796;2022-10-16T08:42:23;100912.56;;;15.83;100.00
10668;BME280;5382;42.136;24.796;2022-10-16T08:45:15;100913.16;;;15.87;100.00
10668;BME280;5382;42.136;24.796;2022-10-16T08:47:56;100914.50;;;16.15;100.00
10668;BME280;5382;42.136;24.796;2022-10-16T08:50:28;100911.22;;;16.45;100.00
10668;BME280;5382;42.136;24.796;2022-10-16T08:52:57;100910.56;;;16.75;98.58
10668;BME280;5382;42.136;24.796;2022-10-16T08:55:33;100923.50;;;17.03;95.19
10668;BME280;5382;42.136;24.796;2022-10-16T08:58:10;100912.94;;;17.01;94.84
10668;BME280;5382;42.136;24.796;2022-10-16T09:00:39;100914.34;;;16.73;94.74
10668;BME280;5382;42.136;24.796;2022-10-16T09:03:16;100907.72;;;16.99;94.50
10668;BME280;5382;42.136;24.796;2022-10-16T09:06:01;100886.63;;;17.17;91.37
10668;BME280;5382;42.136;24.796;2022-10-16T09:08:35;100911.75;;;17.47;85.91
10668;BME280;5382;42.136;24.796;2022-10-16T09:11:10;100914.31;;;17.49;83.16
10668;BME280;5382;42.136;24.796;2022-10-16T09:13:48;100902.75;;;17.48;83.06
10668;BME280;5382;42.136;24.796;2022-10-16T09:16:20;100906.28;;;17.70;81.97
10668;BME280;5382;42.136;24.796;2022-10-16T09:18:58;100910.84;;;17.79;79.37
10668;BME280;5382;42.136;24.796;2022-10-16T09:21:30;100912.47;;;17.91;77.81
10668;BME280;5382;42.136;24.796;2022-10-16T09:23:58;100908.91;;;18.02;78.28
10668;BME280;5382;42.136;24.796;2022-10-16T09:26:26;100911.31;;;18.15;76.33
10668;BME280;5382;42.136;24.796;2022-10-16T09:28:53;100907.72;;;18.25;74.89
10668;BME280;5382;42.136;24.796;2022-10-16T09:31:22;100901.13;;;18.39;73.93
10668;BME280;5382;42.136;24.796;2022-10-16T09:33:54;100898.31;;;18.50;73.61
10668;BME280;5382;42.136;24.796;2022-10-16T09:36:23;100904.44;;;18.62;73.54
10668;BME280;5382;42.136;24.796;2022-10-16T09:39:03;100888.97;;;18.76;70.01
10668;BME280;5382;42.136;24.796;2022-10-16T09:41:30;100886.56;;;18.92;68.19
10668;BME280;5382;42.136;24.796;2022-10-16T09:44:01;100871.84;;;18.67;69.31
10668;BME280;5382;42.136;24.796;2022-10-16T09:46:30;100883.28;;;18.59;69.94
10668;BME280;5382;42.136;24.796;2022-10-16T09:49:00;100870.72;;;18.69;70.77
10668;BME280;5382;42.136;24.796;2022-10-16T09:51:28;100880.38;;;18.91;67.08
10668;BME280;5382;42.136;24.796;2022-10-16T09:54:00;100877.41;;;18.94;63.87
10668;BME280;5382;42.136;24.796;2022-10-16T09:56:28;100874.72;;;18.94;63.40
10668;BME280;5382;42.136;24.796;2022-10-16T09:58:57;100862.56;;;19.10;61.62
10668;BME280;5382;42.136;24.796;2022-10-16T10:01:28;100863.72;;;19.07;64.60
10668;BME280;5382;42.136;24.796;2022-10-16T10:03:58;100868.66;;;19.12;62.46
10668;BME280;5382;42.136;24.796;2022-10-16T10:06:29;100854.53;;;19.10;60.76
10668;BME280;5382;42.136;24.796;2022-10-16T10:08:59;100842.53;;;19.04;61.75
10668;BME280;5382;42.136;24.796;2022-10-16T10:11:41;100855.09;;;18.94;59.66
10668;BME280;5382;42.136;24.796;2022-10-16T10:14:17;100853.97;;;18.77;58.78
10668;BME280;5382;42.136;24.796;2022-10-16T10:16:44;100851.72;;;18.82;58.25
10668;BME280;5382;42.136;24.796;2022-10-16T10:19:16;100852.72;;;19.01;58.17
10668;BME280;5382;42.136;24.796;2022-10-16T10:21:43;100840.72;;;18.85;57.43
10668;BME280;5382;42.136;24.796;2022-10-16T10:24:13;100844.25;;;18.95;58.09
10668;BME280;5382;42.136;24.796;2022-10-16T10:26:54;100834.72;;;19.30;57.93
10668;BME280;5382;42.136;24.796;2022-10-16T10:29:36;100841.94;;;19.96;57.25
10668;BME280;5382;42.136;24.796;2022-10-16T10:32:15;100825.22;;;20.48;53.40
10668;BME280;5382;42.136;24.796;2022-10-16T10:35:07;100806.97;;;20.69;52.51
10668;BME280;5382;42.136;24.796;2022-10-16T10:38:02;100823.41;;;22.07;47.18
10668;BME280;5382;42.136;24.796;2022-10-16T10:40:42;100814.88;;;23.19;43.96
10668;BME280;5382;42.136;24.796;2022-10-16T10:43:24;100812.84;;;24.02;43.60
10668;BME280;5382;42.136;24.796;2022-10-16T10:45:59;100804.75;;;24.33;41.83
10668;BME280;5382;42.136;24.796;2022-10-16T10:48:45;100805.69;;;25.17;39.67
10668;BME280;5382;42.136;24.796;2022-10-16T10:51:21;100791.31;;;25.76;36.06
10668;BME280;5382;42.136;24.796;2022-10-16T10:53:55;100803.22;;;26.05;36.67
10668;BME280;5382;42.136;24.796;2022-10-16T10:56:41;100802.00;;;26.44;36.42
10668;BME280;5382;42.136;24.796;2022-10-16T10:59:35;100799.34;;;27.36;35.02
10668;BME280;5382;42.136;24.796;2022-10-16T11:02:13;100787.25;;;28.22;32.85
10668;BME280;5382;42.136;24.796;2022-10-16T11:07:51;100778.72;;;29.58;30.10
10668;BME280;5382;42.136;24.796;2022-10-16T11:10:23;100787.75;;;29.65;29.90
10668;BME280;5382;42.136;24.796;2022-10-16T11:12:55;100786.75;;;29.46;29.48
10668;BME280;5382;42.136;24.796;2022-10-16T11:15:27;100778.00;;;29.89;29.11
10668;BME280;5382;42.136;24.796;2022-10-16T11:18:00;100790.25;;;30.32;27.71
10668;BME280;5382;42.136;24.796;2022-10-16T11:20:32;100778.75;;;30.10;27.60
10668;BME280;5382;42.136;24.796;2022-10-16T11:23:06;100781.66;;;29.63;27.61
10668;BME280;5382;42.136;24.796;2022-10-16T11:25:34;100773.69;;;29.55;28.29
10668;BME280;5382;42.136;24.796;2022-10-16T11:28:03;100770.34;;;29.66;27.95
10668;BME280;5382;42.136;24.796;2022-10-16T11:30:41;100761.00;;;29.94;27.92
10668;BME280;5382;42.136;24.796;2022-10-16T11:33:23;100767.16;;;30.28;27.55
10668;BME280;5382;42.136;24.796;2022-10-16T11:35:55;100771.00;;;30.52;26.84
10668;BME280;5382;42.136;24.796;2022-10-16T11:38:30;100759.81;;;30.60;27.39
10668;BME280;5382;42.136;24.796;2022-10-16T11:41:03;100759.66;;;30.80;26.58
10668;BME280;5382;42.136;24.796;2022-10-16T11:43:37;100760.78;;;30.40;27.02
10668;BME280;5382;42.136;24.796;2022-10-16T11:46:11;100769.50;;;29.59;27.64
10668;BME280;5382;42.136;24.796;2022-10-16T11:48:43;100761.16;;;30.06;28.25
10668;BME280;5382;42.136;24.796;2022-10-16T11:51:17;100756.84;;;30.61;26.54
10668;BME280;5382;42.136;24.796;2022-10-16T11:53:55;100766.44;;;30.71;25.95
10668;BME280;5382;42.136;24.796;2022-10-16T11:56:23;100756.47;;;30.19;26.47
10668;BME280;5382;42.136;24.796;2022-10-16T11:58:56;100755.31;;;29.17;27.50
10668;BME280;5382;42.136;24.796;2022-10-16T12:01:30;100749.44;;;29.00;27.77
10668;BME280;5382;42.136;24.796;2022-10-16T12:04:18;100759.66;;;29.45;27.97
10668;BME280;5382;42.136;24.796;2022-10-16T12:06:50;100764.06;;;29.52;27.48
10668;BME280;5382;42.136;24.796;2022-10-16T12:09:22;100761.13;;;30.12;26.43
10668;BME280;5382;42.136;24.796;2022-10-16T12:11:51;100752.06;;;31.32;25.69
10668;BME280;5382;42.136;24.796;2022-10-16T12:17:03;100758.13;;;32.38;24.72
10668;BME280;5382;42.136;24.796;2022-10-16T12:19:32;100757.06;;;32.69;24.75
10668;BME280;5382;42.136;24.796;2022-10-16T12:22:01;100750.56;;;32.52;24.43
10668;BME280;5382;42.136;24.796;2022-10-16T12:24:35;100753.16;;;32.47;23.80
10668;BME280;5382;42.136;24.796;2022-10-16T12:27:04;100754.53;;;32.56;23.82
10668;BME280;5382;42.136;24.796;2022-10-16T12:29:36;100763.66;;;32.92;23.53
10668;BME280;5382;42.136;24.796;2022-10-16T12:32:20;100760.03;;;32.91;23.59
10668;BME280;5382;42.136;24.796;2022-10-16T12:34:49;100748.50;;;33.60;22.74
10668;BME280;5382;42.136;24.796;2022-10-16T12:37:21;100753.03;;;33.95;22.54
10668;BME280;5382;42.136;24.796;2022-10-16T12:39:51;100730.94;;;34.13;22.54
10668;BME280;5382;42.136;24.796;2022-10-16T12:42:31;100759.69;;;34.39;22.11
10668;BME280;5382;42.136;24.796;2022-10-16T12:44:59;100760.53;;;34.57;21.72
10668;BME280;5382;42.136;24.796;2022-10-16T12:47:37;100752.25;;;34.85;21.98
10668;BME280;5382;42.136;24.796;2022-10-16T12:50:28;100758.56;;;35.03;20.72
10668;BME280;5382;42.136;24.796;2022-10-16T12:52:56;100761.75;;;34.03;21.70
10668;BME280;5382;42.136;24.796;2022-10-16T12:55:24;100752.47;;;32.51;23.10
10668;BME280;5382;42.136;24.796;2022-10-16T12:58:09;100751.59;;;30.92;24.32
10668;BME280;5382;42.136;24.796;2022-10-16T13:00:44;100769.47;;;30.62;24.54
10668;BME280;5382;42.136;24.796;2022-10-16T13:03:36;100757.84;;;31.79;23.55